Time;durP1;ratioP1;P1;durP2;ratioP2;P2;SDS_P1;SDS_P2;PMS_P1;PMS_P2;Temp;Humidity;BMP_temperature;BMP_pressure;BME280_temperature;BME280_humidity;BME280_pressure;Samples;Min_cycle;Max_cycle;Signal;HPM_P1;HPM_P2
2023/01/27 00:02:02;;;;;;;20.20;10.93;;;0.30;99.90;;;;;;5224307;28;20179;-49
2023/01/27 00:04:33;;;;;;;27.77;11.43;;;0.20;99.90;;;;;;5208432;28;21012;-49
2023/01/27 00:07:03;;;;;;;21.33;10.53;;;0.20;99.90;;;;;;5205806;28;20280;-51
2023/01/27 00:09:34;;;;;;;24.37;10.90;;;0.20;99.90;;;;;;5207849;28;20200;-49
2023/01/27 00:14:54;;;;;;;30.37;11.47;;;0.20;99.90;;;;;;5208336;28;20193;-49
2023/01/27 00:17:25;;;;;;;19.50;10.10;;;0.30;99.90;;;;;;5205270;28;20468;-51
2023/01/27 00:19:55;;;;;;;31.73;13.50;;;0.20;99.90;;;;;;5216141;28;20543;-49
2023/01/27 00:25:16;;;;;;;20.17;11.40;;;0.30;99.90;;;;;;5211300;28;20239;-47
2023/01/27 00:27:47;;;;;;;35.37;12.40;;;0.30;99.90;;;;;;5215747;28;20441;-47
2023/01/27 00:30:18;;;;;;;21.20;11.00;;;0.30;99.90;;;;;;5210814;28;20453;-52
2023/01/27 00:35:38;;;;;;;28.03;11.40;;;0.30;99.90;;;;;;5207968;28;20200;-49
2023/01/27 00:38:09;;;;;;;28.90;11.60;;;0.20;99.90;;;;;;5192993;28;20527;-50
2023/01/27 00:41:13;;;;;;;22.77;10.90;;;0.40;99.90;;;;;;5192394;28;20205;-52
2023/01/27 00:43:30;;;;;;;32.77;12.50;;;0.30;99.90;;;;;;5215700;28;20248;-50
2023/01/27 00:46:01;;;;;;;26.53;11.77;;;0.20;99.90;;;;;;5186799;28;20461;-48
2023/01/27 00:48:33;;;;;;;29.60;11.10;;;0.30;99.90;;;;;;5208023;28;20953;-48
2023/01/27 00:51:03;;;;;;;29.63;12.10;;;0.20;99.90;;;;;;5198156;28;20813;-50
2023/01/27 00:53:35;;;;;;;27.20;12.80;;;0.20;99.90;;;;;;5197144;28;20784;-50
2023/01/27 00:56:06;;;;;;;38.93;11.53;;;0.10;99.90;;;;;;5218284;28;20805;-49
2023/01/27 00:58:37;;;;;;;32.27;12.93;;;0.20;99.90;;;;;;5222147;28;20457;-51
2023/01/27 01:01:10;;;;;;;29.00;12.43;;;0.30;99.90;;;;;;5205137;28;20469;-47
2023/01/27 01:03:42;;;;;;;37.70;12.97;;;0.20;99.90;;;;;;5221239;28;20188;-47
2023/01/27 01:06:15;;;;;;;29.93;11.77;;;0.30;99.90;;;;;;5219869;28;20449;-48
2023/01/27 01:08:47;;;;;;;31.77;12.03;;;0.30;99.90;;;;;;5223397;28;20424;-48
2023/01/27 01:11:20;;;;;;;33.97;13.20;;;0.40;99.90;;;;;;5223814;28;20476;-48
2023/01/27 01:13:50;;;;;;;35.07;14.67;;;0.40;99.90;;;;;;5212897;28;20849;-48
2023/01/27 01:16:22;;;;;;;33.43;12.40;;;0.40;99.90;;;;;;5212759;28;21052;-51
2023/01/27 01:18:53;;;;;;;28.03;10.93;;;0.40;99.90;;;;;;5226323;28;20203;-49
2023/01/27 01:21:24;;;;;;;33.00;12.57;;;0.30;99.90;;;;;;5227769;28;20447;-48
2023/01/27 01:23:55;;;;;;;31.17;9.90;;;0.30;99.90;;;;;;5228194;28;20552;-47
2023/01/27 01:26:26;;;;;;;28.70;10.50;;;0.20;99.90;;;;;;5225088;28;20797;-47
2023/01/27 01:28:57;;;;;;;26.43;11.00;;;0.30;99.90;;;;;;5219131;28;20178;-48
2023/01/27 01:31:28;;;;;;;26.60;11.47;;;0.30;99.90;;;;;;5220252;28;20189;-47
2023/01/27 01:33:59;;;;;;;29.10;11.80;;;0.20;99.90;;;;;;5225442;28;20540;-47
2023/01/27 01:36:30;;;;;;;34.37;12.27;;;0.10;99.90;;;;;;5219807;28;20437;-48
2023/01/27 01:39:00;;;;;;;34.03;12.00;;;0.00;99.90;;;;;;5219818;28;20286;-48
2023/01/27 01:41:31;;;;;;;33.17;11.90;;;0.10;99.90;;;;;;5220799;28;20441;-48
2023/01/27 01:44:28;;;;;;;31.83;12.80;;;0.10;99.90;;;;;;5221068;28;20647;-48
2023/01/27 01:46:59;;;;;;;33.03;11.30;;;0.20;99.90;;;;;;5217833;28;20262;-48
2023/01/27 01:49:36;;;;;;;29.80;12.40;;;0.20;99.90;;;;;;5213006;28;20554;-48
2023/01/27 01:52:13;;;;;;;21.97;10.70;;;0.30;99.90;;;;;;5214281;28;20439;-47
2023/01/27 01:54:51;;;;;;;36.73;12.93;;;0.30;99.90;;;;;;5223482;28;20474;-48
2023/01/27 01:57:31;;;;;;;27.70;11.53;;;0.30;99.90;;;;;;5217150;28;20454;-47
2023/01/27 02:00:08;;;;;;;30.23;12.90;;;0.30;99.90;;;;;;5226958;28;20504;-50
2023/01/27 02:02:40;;;;;;;39.20;13.13;;;0.20;99.90;;;;;;5226125;28;20911;-47
2023/01/27 02:05:16;;;;;;;29.73;11.50;;;0.20;99.90;;;;;;5224833;28;20480;-47
2023/01/27 02:08:10;;;;;;;31.83;13.63;;;0.10;99.90;;;;;;5205390;28;20785;-49
2023/01/27 02:10:41;;;;;;;23.67;12.17;;;0.20;99.90;;;;;;5220197;28;20453;-48
2023/01/27 02:13:12;;;;;;;28.37;12.07;;;0.30;99.90;;;;;;5217509;28;20885;-47
2023/01/27 02:15:43;;;;;;;26.30;11.17;;;0.30;99.90;;;;;;5223399;28;20460;-47
2023/01/27 02:18:14;;;;;;;21.07;11.47;;;0.20;99.90;;;;;;5226364;28;20463;-47
2023/01/27 02:20:48;;;;;;;32.10;13.37;;;0.40;99.90;;;;;;5215670;28;20454;-48
2023/01/27 02:23:40;;;;;;;21.57;11.00;;;0.40;99.90;;;;;;5223812;28;20431;-47
2023/01/27 02:26:21;;;;;;;27.30;13.10;;;0.40;99.90;;;;;;5222154;28;20506;-49
2023/01/27 02:29:01;;;;;;;31.87;12.00;;;0.50;99.90;;;;;;5227449;28;20970;-47
2023/01/27 02:31:32;;;;;;;24.77;12.37;;;0.50;99.90;;;;;;5210624;28;20776;-49
2023/01/27 02:34:13;;;;;;;31.93;12.70;;;0.50;99.90;;;;;;5209973;28;20471;-49
2023/01/27 02:36:51;;;;;;;33.37;13.67;;;0.40;99.90;;;;;;5223739;28;21041;-48
2023/01/27 02:39:25;;;;;;;25.90;12.40;;;0.40;99.90;;;;;;5216047;28;20459;-50
2023/01/27 02:41:57;;;;;;;23.50;12.83;;;0.50;99.90;;;;;;5222891;28;20436;-48
2023/01/27 02:44:28;;;;;;;20.27;10.93;;;0.50;99.90;;;;;;5221765;28;20465;-47
2023/01/27 02:46:58;;;;;;;27.73;11.87;;;0.50;99.90;;;;;;5202274;28;20432;-48
2023/01/27 02:49:29;;;;;;;27.50;11.23;;;0.70;99.90;;;;;;5213415;28;20594;-48
2023/01/27 02:52:00;;;;;;;20.23;11.17;;;0.60;99.90;;;;;;5218035;28;20193;-51
2023/01/27 02:54:31;;;;;;;22.57;11.00;;;0.60;99.90;;;;;;5223745;28;20211;-50
2023/01/27 02:57:01;;;;;;;21.40;11.63;;;0.70;99.90;;;;;;5223244;28;20278;-50
2023/01/27 02:59:32;;;;;;;24.50;11.07;;;0.70;99.90;;;;;;5218387;28;20211;-47
2023/01/27 03:02:03;;;;;;;19.73;9.83;;;0.70;99.90;;;;;;5219178;28;20593;-49
2023/01/27 03:04:37;;;;;;;21.13;10.27;;;0.60;99.90;;;;;;5214001;28;20578;-50
2023/01/27 03:07:08;;;;;;;27.70;11.07;;;0.60;99.90;;;;;;5228224;28;20201;-47
2023/01/27 03:09:39;;;;;;;21.57;10.40;;;0.60;99.90;;;;;;5230296;28;20531;-48
2023/01/27 03:12:19;;;;;;;21.10;10.63;;;0.50;99.90;;;;;;5217038;28;20205;-49
2023/01/27 03:20:30;;;;;;;16.80;9.33;;;0.60;99.90;;;;;;5218726;28;20564;-47
2023/01/27 03:23:02;;;;;;;18.67;9.10;;;0.50;99.90;;;;;;5224848;28;20937;-49
2023/01/27 03:25:32;;;;;;;17.23;9.27;;;0.50;99.90;;;;;;5229206;28;20425;-47
2023/01/27 03:28:03;;;;;;;17.50;9.33;;;0.50;99.90;;;;;;5226915;28;21192;-48
2023/01/27 03:30:34;;;;;;;20.67;9.80;;;0.50;99.90;;;;;;5221542;28;20332;-48
2023/01/27 03:33:06;;;;;;;18.23;9.10;;;0.50;99.90;;;;;;5225464;28;20183;-50
2023/01/27 03:35:37;;;;;;;16.23;8.60;;;0.50;99.90;;;;;;5215356;28;20184;-49
2023/01/27 03:46:41;;;;;;;14.00;8.37;;;0.50;99.90;;;;;;5222692;28;20980;-49
2023/01/27 03:49:11;;;;;;;14.57;8.80;;;0.60;99.90;;;;;;5227111;28;20436;-49
2023/01/27 03:51:42;;;;;;;13.30;7.47;;;0.60;99.90;;;;;;5219317;28;20211;-50
2023/01/27 03:54:13;;;;;;;20.33;9.07;;;0.50;99.90;;;;;;5223286;28;20182;-49
2023/01/27 03:56:44;;;;;;;13.93;8.17;;;0.50;99.90;;;;;;5222623;28;20191;-50
2023/01/27 03:59:14;;;;;;;19.40;8.97;;;0.50;99.90;;;;;;5228017;28;20355;-50
2023/01/27 04:01:45;;;;;;;15.20;8.27;;;0.50;99.90;;;;;;5223742;28;20186;-49
2023/01/27 04:07:05;;;;;;;14.13;7.87;;;0.60;99.90;;;;;;5226332;28;20269;-50
2023/01/27 04:09:36;;;;;;;13.67;8.27;;;0.70;99.90;;;;;;5223860;28;20879;-49
2023/01/27 04:12:11;;;;;;;14.00;7.67;;;0.70;99.90;;;;;;5215455;28;20183;-49
2023/01/27 04:14:42;;;;;;;18.03;7.50;;;0.70;99.90;;;;;;5218178;28;20452;-50
2023/01/27 04:17:16;;;;;;;14.43;6.70;;;0.70;99.90;;;;;;5226801;28;20461;-49
2023/01/27 04:19:47;;;;;;;8.73;6.17;;;0.80;99.90;;;;;;5223485;28;20522;-49
2023/01/27 04:22:17;;;;;;;7.97;6.03;;;0.80;99.90;;;;;;5223696;28;20786;-49
2023/01/27 04:24:49;;;;;;;10.47;7.47;;;0.80;99.90;;;;;;5203392;28;20233;-49
2023/01/27 04:27:19;;;;;;;16.10;7.20;;;0.80;99.90;;;;;;5205616;28;20552;-51
2023/01/27 04:29:50;;;;;;;13.00;6.53;;;0.80;99.90;;;;;;5236986;28;20466;-49
2023/01/27 04:32:21;;;;;;;15.90;6.73;;;0.90;99.90;;;;;;5215783;28;20187;-49
2023/01/27 04:34:53;;;;;;;13.83;7.70;;;0.90;99.90;;;;;;5216904;28;20191;-51
2023/01/27 04:37:23;;;;;;;11.60;6.90;;;0.90;99.90;;;;;;5218443;28;20241;-48
2023/01/27 04:39:54;;;;;;;14.33;7.63;;;1.00;99.90;;;;;;5223475;28;20489;-50
2023/01/27 04:42:25;;;;;;;12.20;6.80;;;1.00;99.90;;;;;;5222657;28;20175;-49
2023/01/27 04:44:55;;;;;;;12.80;7.00;;;1.00;99.90;;;;;;5222476;28;20198;-49
2023/01/27 04:47:26;;;;;;;13.50;8.27;;;1.00;99.90;;;;;;5202405;28;20281;-50
2023/01/27 04:49:57;;;;;;;15.43;7.50;;;1.00;99.90;;;;;;5207394;28;20210;-49
2023/01/27 04:52:28;;;;;;;14.40;7.00;;;0.80;99.90;;;;;;5223580;28;20201;-49
2023/01/27 04:54:58;;;;;;;11.40;6.67;;;0.80;99.90;;;;;;5224541;28;20233;-50
2023/01/27 04:57:29;;;;;;;13.90;6.77;;;0.90;99.90;;;;;;5220352;28;20198;-49
2023/01/27 05:00:00;;;;;;;14.00;7.47;;;0.90;99.90;;;;;;5213625;28;20243;-50
2023/01/27 05:02:31;;;;;;;15.40;6.80;;;0.90;99.90;;;;;;5221724;28;20252;-51
2023/01/27 05:05:03;;;;;;;10.10;6.40;;;1.00;99.90;;;;;;5221352;28;20613;-49
2023/01/27 05:07:34;;;;;;;10.73;6.23;;;1.10;99.90;;;;;;5220376;28;20499;-49
2023/01/27 05:10:06;;;;;;;11.97;6.77;;;1.10;99.90;;;;;;5215023;28;20465;-49
2023/01/27 05:12:37;;;;;;;8.33;5.50;;;1.10;99.90;;;;;;5222430;28;20199;-49
2023/01/27 05:15:08;;;;;;;20.07;7.40;;;1.10;99.90;;;;;;5216175;28;20487;-50
2023/01/27 05:17:39;;;;;;;11.27;6.20;;;1.20;99.90;;;;;;5215725;28;20207;-48
2023/01/27 05:20:10;;;;;;;12.10;7.00;;;1.20;99.90;;;;;;5221045;28;21012;-50
2023/01/27 05:22:41;;;;;;;14.30;6.90;;;1.20;99.90;;;;;;5225069;28;20187;-48
2023/01/27 05:25:12;;;;;;;13.10;6.47;;;1.20;99.90;;;;;;5222351;28;20463;-50
2023/01/27 05:27:42;;;;;;;14.80;6.97;;;1.30;99.90;;;;;;5226367;28;20437;-50
2023/01/27 05:30:13;;;;;;;10.47;6.80;;;1.30;99.90;;;;;;5218959;28;20207;-49
2023/01/27 05:32:45;;;;;;;15.97;7.47;;;1.30;99.90;;;;;;5221843;28;20237;-49
2023/01/27 05:35:16;;;;;;;12.43;7.43;;;1.30;99.90;;;;;;5222462;28;20187;-51
2023/01/27 05:37:47;;;;;;;18.03;8.30;;;1.30;99.90;;;;;;5225487;28;20472;-48
2023/01/27 05:40:18;;;;;;;16.53;7.17;;;1.20;99.90;;;;;;5212940;28;20200;-48
2023/01/27 05:42:50;;;;;;;11.13;6.63;;;1.30;99.90;;;;;;5213273;28;20187;-49
2023/01/27 05:45:21;;;;;;;14.03;7.33;;;1.30;99.90;;;;;;5219961;28;21490;-48
2023/01/27 05:47:52;;;;;;;16.00;7.37;;;1.30;99.90;;;;;;5218317;28;20433;-49
2023/01/27 05:50:23;;;;;;;12.80;7.10;;;1.20;99.90;;;;;;5218536;28;20206;-49
2023/01/27 05:52:53;;;;;;;12.87;6.97;;;1.30;99.90;;;;;;5224043;28;20212;-51
2023/01/27 05:55:24;;;;;;;16.90;7.77;;;1.30;99.90;;;;;;5223127;28;20199;-49
2023/01/27 05:57:55;;;;;;;11.97;6.40;;;1.30;99.90;;;;;;5216131;28;20244;-50
2023/01/27 06:00:26;;;;;;;15.53;6.70;;;1.20;99.90;;;;;;5213154;28;20590;-49
2023/01/27 06:02:56;;;;;;;11.77;7.27;;;1.30;99.90;;;;;;5225571;28;20191;-48
2023/01/27 06:05:27;;;;;;;15.17;7.27;;;1.30;99.90;;;;;;5227133;28;20191;-49
2023/01/27 06:07:58;;;;;;;18.33;8.10;;;1.20;99.90;;;;;;5219999;28;20639;-50
2023/01/27 06:10:30;;;;;;;15.70;6.50;;;1.20;99.90;;;;;;5217471;28;20289;-49
2023/01/27 06:13:01;;;;;;;12.97;7.17;;;1.20;99.90;;;;;;5216528;28;20190;-49
2023/01/27 06:15:32;;;;;;;15.00;8.20;;;1.30;99.90;;;;;;5219531;28;20437;-49
2023/01/27 06:18:03;;;;;;;11.37;6.70;;;1.30;99.90;;;;;;5218216;28;20206;-49
2023/01/27 06:20:33;;;;;;;12.77;6.50;;;1.30;99.90;;;;;;5217874;28;20191;-51
2023/01/27 06:23:05;;;;;;;14.17;6.53;;;1.20;99.90;;;;;;5209009;28;20453;-49
2023/01/27 06:25:42;;;;;;;8.77;5.80;;;1.40;99.90;;;;;;5223248;28;20513;-50
2023/01/27 06:28:14;;;;;;;13.50;7.17;;;1.20;99.90;;;;;;5224102;28;20469;-49
2023/01/27 06:30:45;;;;;;;11.57;6.90;;;1.20;99.90;;;;;;5215383;28;20461;-49
2023/01/27 06:33:16;;;;;;;14.97;7.57;;;1.20;99.90;;;;;;5198113;28;21041;-48
2023/01/27 06:35:47;;;;;;;15.33;7.60;;;1.30;99.90;;;;;;5216179;28;20430;-51
2023/01/27 06:38:18;;;;;;;10.40;6.77;;;1.40;99.90;;;;;;5223148;28;20207;-49
2023/01/27 06:40:49;;;;;;;13.90;7.27;;;1.30;99.90;;;;;;5222293;28;20479;-51
2023/01/27 06:43:19;;;;;;;13.03;6.30;;;1.30;99.90;;;;;;5210394;28;20528;-49
2023/01/27 06:45:51;;;;;;;13.60;6.83;;;1.30;99.90;;;;;;5200743;28;20210;-49
2023/01/27 06:48:22;;;;;;;16.60;8.00;;;1.30;99.90;;;;;;5218189;28;20203;-49
2023/01/27 06:50:55;;;;;;;13.10;6.33;;;1.30;99.90;;;;;;5216994;28;20476;-50
2023/01/27 06:53:26;;;;;;;17.70;6.90;;;1.30;99.90;;;;;;5220256;28;20953;-50
2023/01/27 06:55:58;;;;;;;13.00;6.87;;;1.30;99.90;;;;;;5195612;28;20445;-50
2023/01/27 06:58:29;;;;;;;16.10;8.10;;;1.30;99.90;;;;;;5218873;28;20230;-49
2023/01/27 07:01:00;;;;;;;16.17;7.50;;;1.30;99.90;;;;;;5221584;28;20468;-50
2023/01/27 07:03:31;;;;;;;12.83;7.00;;;1.30;99.90;;;;;;5207604;28;21620;-49
2023/01/27 07:06:01;;;;;;;14.50;6.83;;;1.30;99.90;;;;;;5213320;28;20448;-50
2023/01/27 07:08:34;;;;;;;16.60;8.33;;;1.40;99.90;;;;;;5199056;28;20202;-50
2023/01/27 07:11:05;;;;;;;13.50;7.60;;;1.30;99.90;;;;;;5201727;28;20210;-46
2023/01/27 07:13:36;;;;;;;12.83;7.77;;;1.40;99.90;;;;;;5222227;28;21052;-48
2023/01/27 07:16:07;;;;;;;15.00;7.47;;;1.40;99.90;;;;;;5206205;28;20220;-47
2023/01/27 07:18:38;;;;;;;12.50;7.40;;;1.50;99.90;;;;;;5220062;28;20203;-49
2023/01/27 07:21:09;;;;;;;17.30;9.50;;;1.50;99.90;;;;;;5219244;28;20227;-49
2023/01/27 07:23:39;;;;;;;13.57;7.93;;;1.50;99.90;;;;;;5206509;28;20175;-48
2023/01/27 07:26:10;;;;;;;26.73;9.50;;;1.50;99.90;;;;;;5202811;28;20472;-48
2023/01/27 07:28:41;;;;;;;16.73;8.10;;;1.60;99.90;;;;;;5200842;28;20317;-50
2023/01/27 07:31:12;;;;;;;19.03;8.43;;;1.60;99.90;;;;;;5201278;28;20217;-51
2023/01/27 07:33:43;;;;;;;20.30;9.00;;;1.60;99.90;;;;;;5217247;28;20266;-49
2023/01/27 07:36:13;;;;;;;16.90;8.33;;;1.60;99.90;;;;;;5221822;28;20693;-48
2023/01/27 07:38:50;;;;;;;18.03;9.10;;;1.60;99.90;;;;;;5223561;28;20464;-47
2023/01/27 07:41:23;;;;;;;13.20;8.30;;;1.60;99.90;;;;;;5199643;28;20745;-49
2023/01/27 07:43:54;;;;;;;25.43;10.57;;;1.70;99.90;;;;;;5217308;28;20517;-50
2023/01/27 07:46:25;;;;;;;22.93;8.90;;;1.70;99.90;;;;;;5206049;28;20516;-49
2023/01/27 07:48:56;;;;;;;18.00;8.40;;;1.70;99.90;;;;;;5225546;28;20265;-48
2023/01/27 07:51:27;;;;;;;20.87;9.50;;;1.70;99.90;;;;;;5226315;28;20528;-49
2023/01/27 07:53:57;;;;;;;27.97;9.47;;;1.70;99.90;;;;;;5204710;28;20182;-53
2023/01/27 07:56:28;;;;;;;15.50;8.33;;;1.80;99.90;;;;;;5203857;28;20179;-52
2023/01/27 07:58:58;;;;;;;25.93;9.37;;;1.80;99.90;;;;;;5214020;28;20210;-50
2023/01/27 08:01:30;;;;;;;21.47;9.40;;;1.80;99.90;;;;;;5189841;28;20671;-52
2023/01/27 08:04:00;;;;;;;21.77;9.03;;;1.80;99.90;;;;;;5220002;28;20183;-48
2023/01/27 08:06:31;;;;;;;26.20;9.47;;;1.90;99.90;;;;;;5219479;28;20795;-49
2023/01/27 08:09:02;;;;;;;23.20;11.23;;;1.80;99.90;;;;;;5224479;28;20190;-51
2023/01/27 08:11:33;;;;;;;22.10;10.73;;;2.00;99.90;;;;;;5223742;28;20179;-48
2023/01/27 08:14:04;;;;;;;21.63;9.33;;;2.00;99.90;;;;;;5208490;28;21182;-52
2023/01/27 08:16:35;;;;;;;21.13;11.00;;;2.00;99.90;;;;;;5209223;28;20194;-48
2023/01/27 08:19:06;;;;;;;26.77;10.47;;;2.00;99.90;;;;;;5220849;28;20222;-50
2023/01/27 08:21:37;;;;;;;29.07;10.40;;;2.00;99.90;;;;;;5205103;28;20544;-50
2023/01/27 08:24:09;;;;;;;22.10;11.13;;;2.10;99.90;;;;;;5221615;28;20436;-48
2023/01/27 08:26:43;;;;;;;18.03;9.77;;;2.10;99.90;;;;;;5219537;28;20261;-50
2023/01/27 08:29:14;;;;;;;21.20;8.83;;;2.20;99.90;;;;;;5224974;28;20461;-51
2023/01/27 08:31:45;;;;;;;22.83;10.90;;;2.20;99.90;;;;;;5220750;28;20974;-48
2023/01/27 08:34:16;;;;;;;22.47;9.93;;;2.20;99.90;;;;;;5219628;28;21214;-50
2023/01/27 08:36:46;;;;;;;17.47;9.50;;;2.30;99.90;;;;;;5211466;28;20464;-51
2023/01/27 08:39:17;;;;;;;18.43;9.07;;;2.30;99.90;;;;;;5215326;28;20473;-49
2023/01/27 08:41:48;;;;;;;22.67;10.60;;;2.40;99.90;;;;;;5218040;28;20179;-49
2023/01/27 08:44:19;;;;;;;18.87;10.17;;;2.40;99.90;;;;;;5218702;28;20186;-53
2023/01/27 08:46:50;;;;;;;15.23;10.20;;;2.40;99.90;;;;;;5203234;28;20180;-48
2023/01/27 08:49:21;;;;;;;15.33;9.57;;;2.40;99.90;;;;;;5209884;28;20694;-48
2023/01/27 08:51:51;;;;;;;20.00;10.10;;;2.50;99.90;;;;;;5225677;28;20540;-49
2023/01/27 08:54:22;;;;;;;22.17;8.60;;;2.50;99.90;;;;;;5222103;28;20448;-51
2023/01/27 08:56:53;;;;;;;16.73;9.63;;;2.50;99.90;;;;;;5205652;28;20183;-50
2023/01/27 08:59:24;;;;;;;19.80;11.00;;;2.60;99.90;;;;;;5221483;28;20686;-49
2023/01/27 09:01:54;;;;;;;30.57;10.60;;;2.60;99.90;;;;;;5206718;28;20190;-51
2023/01/27 09:04:28;;;;;;;19.20;9.60;;;2.70;99.90;;;;;;5211969;28;20259;-50
2023/01/27 09:06:58;;;;;;;17.50;9.23;;;2.70;99.90;;;;;;5224166;28;20171;-48
2023/01/27 09:09:29;;;;;;;16.00;9.10;;;2.70;99.90;;;;;;5205280;28;20465;-47
2023/01/27 09:12:00;;;;;;;21.27;8.93;;;2.80;99.90;;;;;;5220453;28;20524;-51
2023/01/27 09:14:31;;;;;;;17.67;8.87;;;2.70;99.90;;;;;;5207372;28;20203;-51
2023/01/27 09:17:02;;;;;;;14.83;9.33;;;2.70;99.90;;;;;;5209870;28;20179;-50
2023/01/27 09:19:33;;;;;;;10.93;8.53;;;2.70;99.90;;;;;;5219651;28;20480;-50
2023/01/27 09:22:04;;;;;;;11.23;8.57;;;2.70;99.90;;;;;;5211061;28;20651;-50
2023/01/27 09:24:35;;;;;;;10.93;7.43;;;2.70;99.90;;;;;;5214184;28;20553;-52
2023/01/27 09:27:06;;;;;;;9.67;7.10;;;2.70;99.90;;;;;;5214673;28;20432;-51
2023/01/27 09:29:37;;;;;;;11.83;6.93;;;2.80;99.90;;;;;;5207739;28;20223;-50
2023/01/27 09:32:11;;;;;;;9.57;6.60;;;2.80;99.90;;;;;;5211612;28;20689;-49
2023/01/27 09:34:42;;;;;;;6.90;6.20;;;2.70;99.90;;;;;;5219338;28;20438;-49
2023/01/27 09:37:13;;;;;;;10.03;5.70;;;2.70;99.90;;;;;;5210733;28;20540;-51
2023/01/27 09:39:51;;;;;;;11.20;5.70;;;2.80;99.90;;;;;;5217799;28;20460;-50
2023/01/27 09:43:15;;;;;;;7.83;5.70;;;2.80;99.90;;;;;;5222113;28;20178;-50
2023/01/27 09:46:13;;;;;;;11.23;6.63;;;2.90;99.90;;;;;;5164173;28;20497;-51
2023/01/27 09:49:16;;;;;;;11.60;6.23;;;2.80;99.90;;;;;;5160049;28;20530;-51
2023/01/27 09:51:50;;;;;;;10.23;7.57;;;2.90;99.90;;;;;;5221476;28;20804;-51
2023/01/27 09:54:55;;;;;;;7.87;6.90;;;2.90;99.90;;;;;;5200954;28;20440;-50
2023/01/27 09:57:44;;;;;;;7.40;6.70;;;2.90;99.90;;;;;;5198961;28;20461;-50
2023/01/27 10:00:51;;;;;;;13.60;7.67;;;2.90;99.90;;;;;;5222187;28;20476;-50
2023/01/27 10:03:56;;;;;;;9.53;6.03;;;3.00;99.90;;;;;;5215940;28;20441;-50
2023/01/27 10:06:39;;;;;;;6.90;6.30;;;2.90;99.90;;;;;;5217624;28;20444;-50
2023/01/27 10:09:22;;;;;;;7.83;5.67;;;3.00;99.90;;;;;;5202283;28;20950;-51
2023/01/27 10:11:55;;;;;;;10.40;6.67;;;3.00;99.90;;;;;;5214242;28;20481;-50
2023/01/27 10:14:46;;;;;;;7.90;5.97;;;3.00;99.90;;;;;;5204948;28;20477;-50
2023/01/27 10:17:56;;;;;;;7.80;5.87;;;3.00;99.90;;;;;;5213236;28;20449;-48
2023/01/27 10:20:58;;;;;;;5.43;5.03;;;3.10;99.90;;;;;;5217545;28;20515;-51
2023/01/27 10:24:06;;;;;;;5.60;5.20;;;3.00;99.90;;;;;;5214900;28;20527;-47
2023/01/27 10:26:50;;;;;;;8.20;5.90;;;3.10;99.90;;;;;;5220066;28;20477;-51
2023/01/27 10:29:25;;;;;;;7.07;4.60;;;3.10;99.90;;;;;;5205447;28;20460;-50
2023/01/27 10:32:08;;;;;;;7.33;5.70;;;3.10;99.90;;;;;;5217427;28;20437;-51
2023/01/27 10:34:52;;;;;;;11.77;6.20;;;3.00;99.90;;;;;;5219367;28;20441;-50
2023/01/27 10:37:29;;;;;;;7.87;5.37;;;3.10;99.90;;;;;;5213779;28;20465;-51
2023/01/27 10:40:45;;;;;;;5.63;4.90;;;3.10;99.90;;;;;;5205758;28;20845;-50
2023/01/27 10:43:29;;;;;;;4.57;4.17;;;3.10;99.90;;;;;;5214396;28;20445;-51
2023/01/27 10:46:24;;;;;;;6.53;5.37;;;3.10;99.90;;;;;;5217961;28;20440;-50
2023/01/27 10:49:06;;;;;;;8.50;5.30;;;3.10;99.90;;;;;;5219368;28;20452;-50
2023/01/27 10:51:49;;;;;;;5.17;4.67;;;3.20;99.90;;;;;;5204612;28;20526;-50
2023/01/27 10:54:24;;;;;;;18.23;5.00;;;3.30;99.90;;;;;;5220898;28;20429;-50
2023/01/27 10:57:10;;;;;;;5.47;4.37;;;3.20;99.90;;;;;;5217373;28;20444;-48
2023/01/27 11:00:12;;;;;;;7.30;4.00;;;3.30;99.90;;;;;;5219111;28;21060;-50
2023/01/27 11:03:04;;;;;;;3.97;3.57;;;3.40;99.90;;;;;;5220631;28;21874;-48
2023/01/27 11:05:40;;;;;;;8.53;3.80;;;3.40;99.90;;;;;;5222463;28;20429;-50
2023/01/27 11:08:21;;;;;;;11.07;4.63;;;3.40;99.90;;;;;;5218578;28;20953;-50
2023/01/27 11:14:01;;;;;;;7.00;4.10;;;3.50;99.90;;;;;;5218850;28;20486;-48
2023/01/27 11:16:37;;;;;;;5.70;4.13;;;3.60;99.90;;;;;;5213438;28;20441;-49
2023/01/27 11:19:49;;;;;;;3.63;3.43;;;3.60;99.90;;;;;;5212361;28;20591;-51
2023/01/27 11:22:25;;;;;;;4.10;2.90;;;3.70;99.90;;;;;;5182158;28;20450;-51
2023/01/27 11:25:11;;;;;;;6.43;3.00;;;3.70;99.90;;;;;;5225467;28;20441;-50
2023/01/27 11:27:58;;;;;;;3.87;3.37;;;3.60;99.90;;;;;;5225544;28;20517;-51
2023/01/27 11:30:38;;;;;;;4.17;3.87;;;3.60;99.90;;;;;;5222566;28;20572;-50
2023/01/27 11:33:25;;;;;;;4.07;3.20;;;3.60;99.90;;;;;;5225787;28;21009;-51
2023/01/27 11:35:56;;;;;;;6.33;3.77;;;3.70;99.90;;;;;;5227830;28;20748;-50
2023/01/27 11:38:27;;;;;;;4.23;3.00;;;3.70;99.90;;;;;;5215160;28;20539;-50
2023/01/27 11:40:58;;;;;;;6.63;4.10;;;3.60;99.90;;;;;;5223866;28;20793;-50
2023/01/27 11:43:28;;;;;;;4.37;4.00;;;3.60;99.90;;;;;;5221441;28;20179;-49
2023/01/27 11:46:06;;;;;;;7.27;3.20;;;3.50;99.90;;;;;;5221675;28;20187;-48
2023/01/27 11:48:45;;;;;;;10.10;4.40;;;3.50;99.90;;;;;;5222948;28;20191;-50
2023/01/27 11:51:22;;;;;;;7.20;4.83;;;3.50;99.90;;;;;;5213281;28;20452;-49
2023/01/27 11:54:17;;;;;;;7.70;4.53;;;3.60;99.90;;;;;;5208841;28;20449;-49
2023/01/27 11:56:49;;;;;;;10.10;5.20;;;3.70;99.90;;;;;;5226324;28;20492;-51
2023/01/27 11:59:23;;;;;;;9.97;5.20;;;3.60;99.90;;;;;;5224891;28;20479;-49
2023/01/27 12:02:05;;;;;;;17.47;6.10;;;3.60;99.90;;;;;;5217101;28;20440;-50
2023/01/27 12:04:54;;;;;;;15.73;5.50;;;3.70;99.90;;;;;;5216390;28;20444;-49
2023/01/27 12:07:30;;;;;;;9.33;5.97;;;3.60;99.90;;;;;;5225534;28;20445;-50
2023/01/27 12:10:02;;;;;;;14.37;5.23;;;3.60;99.90;;;;;;5224909;28;20822;-50
2023/01/27 12:12:36;;;;;;;7.60;4.57;;;3.60;99.90;;;;;;5224165;28;20441;-50
2023/01/27 12:15:15;;;;;;;13.67;7.70;;;3.60;99.90;;;;;;5219022;28;20456;-51
2023/01/27 12:17:58;;;;;;;6.90;5.87;;;3.50;99.90;;;;;;5224756;28;20510;-50
2023/01/27 12:20:57;;;;;;;9.43;5.63;;;3.50;99.90;;;;;;5224461;28;20835;-49
2023/01/27 12:23:46;;;;;;;9.00;6.20;;;3.50;99.90;;;;;;5212347;28;20525;-49
2023/01/27 12:26:44;;;;;;;13.97;6.50;;;3.50;99.90;;;;;;5220176;28;20929;-50
2023/01/27 12:29:43;;;;;;;11.77;7.00;;;3.50;99.90;;;;;;5227147;28;20457;-49
2023/01/27 12:32:26;;;;;;;18.83;6.40;;;3.40;99.90;;;;;;5215295;28;20964;-50
2023/01/27 12:34:57;;;;;;;12.13;5.83;;;3.40;99.90;;;;;;5214425;28;20434;-50
2023/01/27 12:37:32;;;;;;;11.43;5.63;;;3.40;99.90;;;;;;5214270;28;21677;-50
2023/01/27 12:40:06;;;;;;;8.50;5.00;;;3.40;99.90;;;;;;5215665;28;20485;-50
2023/01/27 12:42:40;;;;;;;13.67;5.30;;;3.40;99.90;;;;;;5216091;28;20420;-49
2023/01/27 12:45:28;;;;;;;3.60;3.30;;;3.30;99.90;;;;;;5218591;28;20425;-50
2023/01/27 12:48:08;;;;;;;4.20;3.77;;;3.40;99.90;;;;;;5205223;28;20511;-49
2023/01/27 12:50:41;;;;;;;10.00;3.93;;;3.40;99.90;;;;;;5210441;28;20468;-48
2023/01/27 12:53:17;;;;;;;14.57;4.87;;;3.40;99.90;;;;;;5220716;28;20445;-50
2023/01/27 12:55:58;;;;;;;9.77;4.63;;;3.40;99.90;;;;;;5216938;28;20441;-50
2023/01/27 12:58:51;;;;;;;4.80;4.13;;;3.50;99.90;;;;;;5199486;28;20992;-48
2023/01/27 13:01:30;;;;;;;12.33;4.00;;;3.30;99.90;;;;;;5223975;28;20522;-47
2023/01/27 13:04:20;;;;;;;13.50;4.20;;;3.20;99.90;;;;;;5223982;28;20440;-49
2023/01/27 13:07:14;;;;;;;4.87;3.57;;;3.30;99.90;;;;;;5215361;28;20472;-48
2023/01/27 13:09:59;;;;;;;11.07;3.80;;;3.10;99.90;;;;;;5226402;22;20961;-51
2023/01/27 13:12:36;;;;;;;9.37;4.07;;;3.10;99.90;;;;;;5228955;28;20445;-52
2023/01/27 13:15:18;;;;;;;5.63;3.70;;;3.10;99.90;;;;;;5217939;28;20437;-52
2023/01/27 13:17:54;;;;;;;4.67;3.23;;;3.10;99.90;;;;;;5217837;28;20484;-51
2023/01/27 13:20:25;;;;;;;9.33;3.73;;;3.00;99.90;;;;;;5226386;28;20455;-51
2023/01/27 13:23:29;;;;;;;6.97;3.37;;;3.20;99.90;;;;;;5226923;28;20437;-50
2023/01/27 13:26:03;;;;;;;6.90;3.20;;;3.10;99.90;;;;;;5231392;28;20305;-53
2023/01/27 13:28:44;;;;;;;7.83;3.70;;;3.10;99.90;;;;;;5229560;28;21113;-52
2023/01/27 13:31:40;;;;;;;11.30;3.50;;;3.10;99.90;;;;;;5213824;28;20824;-52
2023/01/27 13:34:33;;;;;;;9.70;4.17;;;3.20;99.90;;;;;;5227138;28;20445;-52
2023/01/27 13:37:15;;;;;;;3.17;2.80;;;3.10;99.90;;;;;;5225522;28;20639;-50
2023/01/27 13:40:21;;;;;;;9.10;3.67;;;3.20;99.90;;;;;;5213842;28;20997;-54
2023/01/27 13:43:00;;;;;;;15.33;3.27;;;3.10;99.90;;;;;;5216673;28;20443;-51
2023/01/27 13:45:39;;;;;;;3.03;2.80;;;3.20;99.90;;;;;;5209184;28;20464;-50
2023/01/27 13:48:18;;;;;;;9.20;3.07;;;3.30;99.90;;;;;;5226007;28;20796;-51
2023/01/27 13:51:28;;;;;;;5.43;3.00;;;3.30;99.90;;;;;;5223504;28;20573;-50
2023/01/27 13:54:03;;;;;;;5.97;2.23;;;3.30;99.90;;;;;;5218421;28;20949;-49
2023/01/27 13:56:51;;;;;;;8.70;2.90;;;3.30;99.90;;;;;;5225863;28;20701;-50
2023/01/27 13:59:37;;;;;;;4.73;2.47;;;3.40;99.90;;;;;;5226585;28;20465;-51